Terminal Aerodrome Forecast
Issued by NWS Albany, NY

Home | Current Version | Previous Version | Text Only | Print | Product List | Glossary On
Versions: 1 2 3 4 5 6 7 8 9 10 11 12 13 14 15 16 17
353
FTUS41 KALY 292320
TAFGFL
TAF
KGFL 292320Z 3000/3024 22005KT P6SM VCSH SCT050 OVC090
     FM300500 36003KT P6SM BKN080
     FM301500 05008KT P6SM FEW050 SCT250=

USA.gov is the U.S. government's official web portal to all federal, state and local government web resources and services.